Time;durP1;ratioP1;P1;durP2;ratioP2;P2;SDS_P1;SDS_P2;PMS_P1;PMS_P2;Temp;Humidity;BMP_temperature;BMP_pressure;BME280_temperature;BME280_humidity;BME280_pressure;Samples;Min_cycle;Max_cycle;Signal;HPM_P1;HPM_P2
2021/05/11 00:01:20;;;;;;;;;;;;;;;13.42;80.49;100912.47;5043796;28;810;-79
2021/05/11 00:03:47;;;;;;;;;;;;;;;13.40;80.86;100900.94;5043722;28;880;-79
2021/05/11 00:06:12;;;;;;;;;;;;;;;13.38;81.45;100913.56;5042086;28;859;-79
2021/05/11 00:08:38;;;;;;;;;;;;;;;13.36;81.54;100913.94;5038506;28;1898;-79
2021/05/11 00:11:03;;;;;;;;;;;;;;;13.35;81.42;100926.16;5040358;28;1491;-79
2021/05/11 00:13:29;;;;;;;;;;;;;;;13.33;81.93;100925.72;5041112;28;1141;-79
2021/05/11 00:15:55;;;;;;;;;;;;;;;13.31;82.56;100934.41;5042470;28;805;-78
2021/05/11 00:18:20;;;;;;;;;;;;;;;13.27;82.36;100929.91;5039770;28;1280;-78
2021/05/11 00:20:45;;;;;;;;;;;;;;;13.22;83.87;100939.31;5039279;28;873;-78
2021/05/11 00:23:11;;;;;;;;;;;;;;;13.16;83.82;100947.09;5038913;28;999;-78
2021/05/11 00:25:36;;;;;;;;;;;;;;;13.11;84.22;100941.81;5041399;28;1000;-78
2021/05/11 00:28:02;;;;;;;;;;;;;;;13.08;84.11;100944.50;5038271;28;1878;-79
2021/05/11 00:30:27;;;;;;;;;;;;;;;13.07;84.64;100949.25;5038734;28;857;-78
2021/05/11 00:32:53;;;;;;;;;;;;;;;13.05;85.78;100945.25;5036605;28;1392;-77
2021/05/11 00:35:18;;;;;;;;;;;;;;;13.01;85.73;100942.34;5037664;28;1027;-77
2021/05/11 00:37:43;;;;;;;;;;;;;;;12.96;85.94;100935.13;5038435;28;936;-76
2021/05/11 00:40:09;;;;;;;;;;;;;;;12.91;85.89;100937.38;5036955;28;1276;-77
2021/05/11 00:42:35;;;;;;;;;;;;;;;12.86;87.61;100932.09;5037000;28;808;-77
2021/05/11 00:45:01;;;;;;;;;;;;;;;12.79;86.99;100924.41;5036710;28;979;-76
2021/05/11 00:47:26;;;;;;;;;;;;;;;12.74;88.47;100919.91;5036765;28;1874;-76
2021/05/11 00:49:52;;;;;;;;;;;;;;;12.69;88.97;100916.63;5036773;28;1268;-77
2021/05/11 00:52:18;;;;;;;;;;;;;;;12.66;89.47;100912.56;5036443;28;863;-77
2021/05/11 00:54:43;;;;;;;;;;;;;;;12.61;88.47;100899.00;5036519;28;814;-77
2021/05/11 00:57:09;;;;;;;;;;;;;;;12.59;88.62;100909.63;5036847;28;1027;-77
2021/05/11 00:59:35;;;;;;;;;;;;;;;12.60;89.64;100908.47;5035854;28;1216;-77
2021/05/11 01:02:04;;;;;;;;;;;;;;;12.60;90.16;100905.72;5036588;28;777;-76
2021/05/11 01:04:30;;;;;;;;;;;;;;;12.62;89.72;100917.22;5036406;28;789;-77
2021/05/11 01:06:56;;;;;;;;;;;;;;;12.62;89.85;100919.22;5034979;28;1977;-77
2021/05/11 01:09:22;;;;;;;;;;;;;;;12.63;90.64;100938.25;5036065;28;1241;-76
2021/05/11 01:11:48;;;;;;;;;;;;;;;12.64;90.57;100941.81;5036394;28;1058;-77
2021/05/11 01:14:13;;;;;;;;;;;;;;;12.63;90.91;100951.28;5036204;28;849;-77
2021/05/11 01:16:40;;;;;;;;;;;;;;;12.63;90.65;100951.28;5036077;28;781;-78
2021/05/11 01:21:41;;;;;;;;;;;;;;;12.59;90.79;100940.88;5036270;28;996;-76
2021/05/11 01:51:10;;;;;;;;;;;;;;;12.35;94.15;100947.38;5035833;28;856;-77
2021/05/11 02:22:58;;;;;;;;;;;;;;;12.04;96.33;100948.06;5035786;28;700;-77
2021/05/11 02:25:23;;;;;;;;;;;;;;;12.02;96.09;100942.88;5035136;28;1050;-79
2021/05/11 02:27:49;;;;;;;;;;;;;;;12.00;96.57;100947.16;5037141;28;1953;-78
2021/05/11 02:30:15;;;;;;;;;;;;;;;11.97;96.27;100947.88;5035530;28;1169;-78
2021/05/11 02:32:41;;;;;;;;;;;;;;;11.92;95.78;100950.88;5035486;28;825;-77
2021/05/11 02:35:09;;;;;;;;;;;;;;;11.89;95.55;100935.75;5035256;28;951;-77
2021/05/11 02:37:34;;;;;;;;;;;;;;;11.87;95.66;100929.78;5036288;28;1126;-78
2021/05/11 02:40:00;;;;;;;;;;;;;;;11.88;95.56;100925.03;5039444;28;1189;-78
2021/05/11 02:42:26;;;;;;;;;;;;;;;11.87;95.77;100924.25;5040833;28;797;-77
2021/05/11 02:44:53;;;;;;;;;;;;;;;11.86;96.20;100928.94;5039413;28;813;-77
2021/05/11 02:47:18;;;;;;;;;;;;;;;11.88;96.42;100927.81;5039019;28;1890;-77
2021/05/11 02:49:45;;;;;;;;;;;;;;;11.86;96.44;100931.72;5038613;28;1154;-78
2021/05/11 02:52:12;;;;;;;;;;;;;;;11.84;96.03;100938.78;5039341;28;1868;-78
2021/05/11 02:54:37;;;;;;;;;;;;;;;11.80;95.29;100932.31;5039003;28;916;-77
2021/05/11 02:57:04;;;;;;;;;;;;;;;11.74;95.12;100937.28;5039126;28;860;-78
2021/05/11 02:59:29;;;;;;;;;;;;;;;11.69;95.36;100942.25;5038240;28;1189;-78
2021/05/11 03:01:54;;;;;;;;;;;;;;;11.67;95.32;100943.41;5039682;28;916;-77
2021/05/11 03:04:20;;;;;;;;;;;;;;;11.65;95.55;100939.38;5038901;28;1122;-78
2021/05/11 03:06:45;;;;;;;;;;;;;;;11.61;95.56;100927.41;5039355;28;1902;-78
2021/05/11 03:09:11;;;;;;;;;;;;;;;11.56;95.50;100928.47;5038537;28;1185;-78
2021/05/11 03:11:37;;;;;;;;;;;;;;;11.55;95.75;100934.34;5039475;28;790;-78
2021/05/11 03:14:03;;;;;;;;;;;;;;;11.53;95.71;100933.88;5041760;28;1005;-78
2021/05/11 03:16:30;;;;;;;;;;;;;;;11.53;96.17;100945.75;5039314;28;825;-78
2021/05/11 03:18:55;;;;;;;;;;;;;;;11.50;96.17;100935.38;5038824;28;1268;-78
2021/05/11 03:21:20;;;;;;;;;;;;;;;11.52;96.34;100935.03;5039180;28;975;-78
2021/05/11 03:23:46;;;;;;;;;;;;;;;11.52;96.06;100933.06;5039442;28;747;-78
2021/05/11 03:26:11;;;;;;;;;;;;;;;11.51;96.16;100934.22;5039026;28;860;-78
2021/05/11 03:28:36;;;;;;;;;;;;;;;11.52;96.30;100935.81;5038888;28;1886;-77
2021/05/11 03:31:02;;;;;;;;;;;;;;;11.52;96.42;100941.34;5039001;28;1008;-78
2021/05/11 03:33:27;;;;;;;;;;;;;;;11.50;96.41;100937.34;5038805;28;955;-78
2021/05/11 03:35:52;;;;;;;;;;;;;;;11.51;96.40;100952.78;5038263;28;1003;-78
2021/05/11 03:38:17;;;;;;;;;;;;;;;11.47;96.46;100956.25;5038205;28;1300;-77
2021/05/11 03:40:43;;;;;;;;;;;;;;;11.47;96.54;100975.59;5038711;28;1004;-78
2021/05/11 03:43:12;;;;;;;;;;;;;;;11.46;96.49;100981.47;5038821;28;805;-78
2021/05/11 03:45:43;;;;;;;;;;;;;;;11.44;96.51;100976.28;5038764;28;837;-78
2021/05/11 03:48:09;;;;;;;;;;;;;;;11.43;96.81;100974.66;5037421;28;1953;-77
2021/05/11 03:50:34;;;;;;;;;;;;;;;11.42;96.25;100975.81;5038447;28;1039;-78
2021/05/11 03:53:01;;;;;;;;;;;;;;;11.42;96.71;100975.81;5036982;28;1609;-78
2021/05/11 03:55:26;;;;;;;;;;;;;;;11.40;96.60;100963.50;5038754;28;864;-78
2021/05/11 03:57:52;;;;;;;;;;;;;;;11.38;96.83;100961.06;5039506;28;1067;-78
2021/05/11 04:00:17;;;;;;;;;;;;;;;11.37;96.88;100964.19;5038493;28;1280;-77
2021/05/11 04:02:42;;;;;;;;;;;;;;;11.35;97.45;100964.53;5039460;28;1000;-78
2021/05/11 04:05:10;;;;;;;;;;;;;;;11.34;97.55;100962.91;5038116;28;777;-77
2021/05/11 04:07:37;;;;;;;;;;;;;;;11.32;97.30;100964.44;5037363;28;1967;-76
2021/05/11 04:10:09;;;;;;;;;;;;;;;11.29;97.36;100961.19;5037650;28;1166;-78
2021/05/11 04:13:03;;;;;;;;;;;;;;;11.25;96.92;100957.50;5038051;28;852;-78
2021/05/11 04:18:13;;;;;;;;;;;;;;;11.28;96.94;100945.78;5036906;28;1217;-78
2021/05/11 04:20:38;;;;;;;;;;;;;;;11.27;96.93;100946.13;5037369;28;887;-77
2021/05/11 04:23:03;;;;;;;;;;;;;;;11.24;96.52;100949.56;5037438;28;992;-78
2021/05/11 04:25:29;;;;;;;;;;;;;;;11.25;96.91;100940.13;5037630;28;1081;-78
2021/05/11 04:27:54;;;;;;;;;;;;;;;11.27;97.00;100951.63;5037000;28;1969;-77
2021/05/11 04:30:20;;;;;;;;;;;;;;;11.28;96.84;100944.94;5036805;28;1335;-77
2021/05/11 04:32:45;;;;;;;;;;;;;;;11.27;96.55;100944.16;5037105;28;782;-77
2021/05/11 04:35:12;;;;;;;;;;;;;;;11.27;96.36;100935.84;5036992;28;1176;-77
2021/05/11 04:37:37;;;;;;;;;;;;;;;11.31;96.43;100946.22;5036695;28;917;-77
2021/05/11 04:40:03;;;;;;;;;;;;;;;11.29;96.06;100941.84;5036959;28;1264;-77
2021/05/11 04:42:29;;;;;;;;;;;;;;;11.26;96.00;100934.25;5036827;28;1228;-77
2021/05/11 04:44:56;;;;;;;;;;;;;;;11.26;95.80;100930.66;5038042;28;925;-77
2021/05/11 04:47:28;;;;;;;;;;;;;;;11.25;95.87;100940.13;5036991;28;1967;-76
2021/05/11 04:49:54;;;;;;;;;;;;;;;11.26;95.78;100941.72;5037005;28;1323;-76
2021/05/11 04:52:19;;;;;;;;;;;;;;;11.26;95.64;100942.56;5036671;28;1351;-76
2021/05/11 04:54:45;;;;;;;;;;;;;;;11.28;95.73;100943.00;5037423;28;916;-76
2021/05/11 04:57:10;;;;;;;;;;;;;;;11.29;95.67;100935.50;5037232;28;782;-77
2021/05/11 04:59:35;;;;;;;;;;;;;;;11.29;95.49;100928.00;5035146;28;1166;-77
2021/05/11 05:02:03;;;;;;;;;;;;;;;11.27;95.44;100929.53;5036473;28;797;-77
2021/05/11 05:04:32;;;;;;;;;;;;;;;11.29;95.68;100925.25;5036402;28;871;-77
2021/05/11 05:06:57;;;;;;;;;;;;;;;11.34;95.71;100924.22;5036593;28;1902;-77
2021/05/11 05:09:23;;;;;;;;;;;;;;;11.41;95.48;100929.16;5035805;28;1177;-77
2021/05/11 05:11:48;;;;;;;;;;;;;;;11.47;95.90;100922.22;5036284;28;892;-77
2021/05/11 05:14:13;;;;;;;;;;;;;;;11.53;95.82;100926.38;5034917;28;828;-77
2021/05/11 05:16:38;;;;;;;;;;;;;;;11.58;95.71;100936.41;5036577;28;991;-77
2021/05/11 05:19:04;;;;;;;;;;;;;;;11.53;95.44;100934.69;5035364;28;1154;-77
2021/05/11 05:21:30;;;;;;;;;;;;;;;11.53;95.50;100931.91;5036377;28;880;-77
2021/05/11 05:24:18;;;;;;;;;;;;;;;11.52;95.28;100940.56;5036428;28;805;-77
2021/05/11 05:26:48;;;;;;;;;;;;;;;11.43;94.40;100941.47;5035776;28;1894;-77
2021/05/11 05:29:13;;;;;;;;;;;;;;;11.43;94.62;100940.69;5035795;28;1162;-77
2021/05/11 05:31:39;;;;;;;;;;;;;;;11.42;94.67;100953.72;5036123;28;892;-77
2021/05/11 05:34:04;;;;;;;;;;;;;;;11.45;94.97;100957.72;5036687;28;982;-77
2021/05/11 05:36:29;;;;;;;;;;;;;;;11.48;94.99;100968.91;5036294;28;955;-77
2021/05/11 05:38:56;;;;;;;;;;;;;;;11.51;95.07;100970.19;5035373;28;1143;-77
2021/05/11 05:41:23;;;;;;;;;;;;;;;11.47;95.11;100983.06;5036200;28;861;-77
2021/05/11 05:43:49;;;;;;;;;;;;;;;11.44;95.18;100979.03;5036286;28;868;-76
2021/05/11 05:46:14;;;;;;;;;;;;;;;11.45;95.02;100985.38;5036045;28;821;-77
2021/05/11 05:48:40;;;;;;;;;;;;;;;11.51;95.20;100988.75;5035470;28;1906;-77
2021/05/11 05:51:05;;;;;;;;;;;;;;;11.56;95.48;100982.94;5035952;28;797;-76
2021/05/11 05:53:39;;;;;;;;;;;;;;;11.65;95.66;100984.44;5029025;28;785;-77
2021/05/11 05:56:05;;;;;;;;;;;;;;;11.74;95.71;100987.09;5028186;28;848;-77
2021/05/11 05:58:31;;;;;;;;;;;;;;;11.79;95.24;100981.31;5033943;28;1296;-77
2021/05/11 06:01:01;;;;;;;;;;;;;;;11.84;94.89;100989.38;5034190;28;910;-77
2021/05/11 06:05:57;;;;;;;;;;;;;;;12.07;94.41;100993.63;5035277;28;832;-76
2021/05/11 06:08:24;;;;;;;;;;;;;;;12.20;94.51;100987.69;5028789;28;1894;-77
2021/05/11 06:10:53;;;;;;;;;;;;;;;12.29;94.18;100998.63;5028157;28;841;-76
2021/05/11 06:13:21;;;;;;;;;;;;;;;12.19;92.22;100991.63;5032675;28;821;-76
2021/05/11 06:18:31;;;;;;;;;;;;;;;12.16;93.29;100980.44;5035618;28;1347;-76
2021/05/11 06:20:56;;;;;;;;;;;;;;;12.18;93.06;100991.97;5037279;28;809;-77
2021/05/11 06:23:21;;;;;;;;;;;;;;;12.20;93.29;100982.16;5034201;28;1003;-77
2021/05/11 06:25:47;;;;;;;;;;;;;;;12.30;93.38;100982.81;5030856;28;1228;-77
2021/05/11 06:28:13;;;;;;;;;;;;;;;12.40;93.39;100979.53;5033782;28;1902;-77
2021/05/11 06:30:38;;;;;;;;;;;;;;;12.54;93.72;100974.38;5035376;28;817;-77
2021/05/11 06:33:07;;;;;;;;;;;;;;;12.68;93.88;100965.66;5035483;28;1003;-77
2021/05/11 06:35:34;;;;;;;;;;;;;;;12.81;93.56;100962.84;5035194;28;983;-77
2021/05/11 06:38:00;;;;;;;;;;;;;;;12.92;93.02;100972.22;5034478;28;1243;-78
2021/05/11 06:40:30;;;;;;;;;;;;;;;12.95;92.95;100966.75;5036542;28;715;-76
2021/05/11 06:42:57;;;;;;;;;;;;;;;12.91;92.76;100971.41;5035287;28;883;-77
2021/05/11 06:50:39;;;;;;;;;;;;;;;12.87;92.91;100967.72;5035320;28;825;-77
2021/05/11 06:53:11;;;;;;;;;;;;;;;12.86;92.66;100968.91;5035066;28;797;-77
2021/05/11 06:55:40;;;;;;;;;;;;;;;12.89;93.28;100972.94;5034797;28;868;-77
2021/05/11 06:58:05;;;;;;;;;;;;;;;12.97;93.46;100963.63;5034472;28;1272;-77
2021/05/11 07:00:31;;;;;;;;;;;;;;;13.01;93.43;100958.97;5035582;28;1015;-77
2021/05/11 07:02:58;;;;;;;;;;;;;;;13.03;93.33;100945.59;5035471;28;987;-77
2021/05/11 07:05:24;;;;;;;;;;;;;;;13.08;93.59;100942.56;5034914;28;829;-77
2021/05/11 07:08:02;;;;;;;;;;;;;;;13.00;92.03;100946.31;5034287;28;1914;-77
2021/05/11 07:10:31;;;;;;;;;;;;;;;12.89;91.43;100954.34;5037003;28;896;-79
2021/05/11 07:13:09;;;;;;;;;;;;;;;12.89;91.44;100951.59;5035298;28;825;-77
2021/05/11 07:15:34;;;;;;;;;;;;;;;13.04;92.00;100949.16;5034834;28;837;-77
2021/05/11 07:18:16;;;;;;;;;;;;;;;13.15;92.33;100944.69;5033974;28;1260;-77
2021/05/11 07:20:44;;;;;;;;;;;;;;;13.37;92.00;100942.47;5034795;28;742;-79
2021/05/11 07:23:09;;;;;;;;;;;;;;;13.48;91.50;100946.28;5036879;28;907;-77
2021/05/11 07:30:57;;;;;;;;;;;;;;;13.62;91.09;100951.38;5038870;28;927;-77
2021/05/11 07:33:26;;;;;;;;;;;;;;;13.71;91.03;100944.44;5038425;28;844;-77
2021/05/11 07:35:52;;;;;;;;;;;;;;;13.77;90.45;100941.38;5038299;28;855;-77
2021/05/11 07:38:17;;;;;;;;;;;;;;;13.76;89.83;100948.91;5038484;28;1193;-77
2021/05/11 07:40:43;;;;;;;;;;;;;;;13.56;90.07;100950.81;5038538;28;1061;-77
2021/05/11 07:43:09;;;;;;;;;;;;;;;13.25;90.48;100959.97;5038306;28;954;-77
2021/05/11 08:15:34;;;;;;;;;;;;;;;13.03;91.54;100970.53;5037711;28;607;-78
2021/05/11 08:17:42;;;;;;;;;;;;;;;13.06;91.38;100969.00;5026280;28;1580;-77
2021/05/11 08:28:17;;;;;;;;;;;;;;;14.11;88.44;100970.25;5037006;28;1965;-77
2021/05/11 08:30:42;;;;;;;;;;;;;;;14.11;87.89;100979.38;5037600;28;983;-77
2021/05/11 08:33:07;;;;;;;;;;;;;;;14.02;87.76;100967.69;5038025;28;876;-79
2021/05/11 08:35:33;;;;;;;;;;;;;;;14.00;89.17;100974.75;5037150;28;948;-77
2021/05/11 08:37:58;;;;;;;;;;;;;;;14.00;89.08;100958.09;5037537;28;1225;-77
2021/05/11 08:40:25;;;;;;;;;;;;;;;14.08;89.03;100944.03;5038610;28;698;-77
2021/05/11 08:42:50;;;;;;;;;;;;;;;14.38;88.54;100934.28;5037713;28;801;-77
2021/05/11 08:45:16;;;;;;;;;;;;;;;14.56;84.26;100929.06;5037404;28;1031;-77
2021/05/11 08:47:50;;;;;;;;;;;;;;;14.85;85.97;100922.06;5039326;28;1963;-76
2021/05/11 08:50:17;;;;;;;;;;;;;;;15.21;84.92;100917.91;5041615;28;1273;-76
2021/05/11 08:52:56;;;;;;;;;;;;;;;15.49;84.58;100916.72;5041062;28;888;-76
2021/05/11 09:25:38;;;;;;;;;;;;;;;14.28;85.58;100930.13;5036429;28;600;-76
2021/05/11 09:28:45;;;;;;;;;;;;;;;14.30;86.28;100922.25;5036899;28;1894;-77
2021/05/11 09:32:04;;;;;;;;;;;;;;;14.38;85.98;100921.22;5036210;28;852;-76
2021/05/11 10:31:19;;;;;;;;;;;;;;;13.62;86.05;100952.16;5032503;28;4099;-76
2021/05/11 10:39:07;;;;;;;;;;;;;;;13.65;86.37;100934.78;5054592;28;1579;-78
2021/05/11 10:46:56;;;;;;;;;;;;;;;13.91;85.30;100931.38;5016166;28;931;-78
2021/05/11 10:49:36;;;;;;;;;;;;;;;13.85;84.73;100913.41;5026251;28;1376;-77
2021/05/11 10:54:41;;;;;;;;;;;;;;;13.68;85.01;100905.50;5035186;28;948;-77
2021/05/11 10:57:27;;;;;;;;;;;;;;;13.79;84.51;100894.63;5049858;28;1672;-77
2021/05/11 11:00:17;;;;;;;;;;;;;;;14.04;84.57;100884.84;5058004;28;1204;-77
2021/05/11 11:02:43;;;;;;;;;;;;;;;14.40;83.32;100882.75;5058056;28;1201;-76
2021/05/11 11:05:09;;;;;;;;;;;;;;;14.51;81.64;100888.50;5058769;28;932;-77
2021/05/11 11:07:40;;;;;;;;;;;;;;;14.74;81.55;100883.00;5052418;28;1969;-76
2021/05/11 11:10:08;;;;;;;;;;;;;;;14.85;81.73;100877.59;5058536;28;1173;-77
2021/05/11 11:12:39;;;;;;;;;;;;;;;14.77;80.45;100873.88;5057204;28;853;-76
2021/05/11 11:15:15;;;;;;;;;;;;;;;14.69;80.58;100879.69;5058410;28;896;-76
2021/05/11 11:17:47;;;;;;;;;;;;;;;14.61;80.29;100884.34;5057415;28;856;-76
2021/05/11 11:20:14;;;;;;;;;;;;;;;14.51;81.79;100890.47;5058704;28;1185;-76
2021/05/11 11:25:25;;;;;;;;;;;;;;;14.30;81.68;100886.94;5045329;28;725;-76
2021/05/11 11:27:51;;;;;;;;;;;;;;;14.22;81.54;100867.72;5037412;28;3573;-76
2021/05/11 11:30:17;;;;;;;;;;;;;;;14.07;82.26;100873.00;5023821;28;1895;-76
2021/05/11 11:32:43;;;;;;;;;;;;;;;13.89;81.11;100871.84;5015970;28;1510;-76
2021/05/11 11:35:10;;;;;;;;;;;;;;;14.02;81.65;100862.19;5034630;28;1456;-76
2021/05/11 11:37:37;;;;;;;;;;;;;;;14.13;81.38;100861.59;5037860;28;1007;-76
2021/05/11 11:40:08;;;;;;;;;;;;;;;14.04;81.38;100868.19;5038048;28;1261;-76
2021/05/11 11:42:40;;;;;;;;;;;;;;;14.01;81.62;100865.34;5039712;28;844;-77
2021/05/11 11:45:21;;;;;;;;;;;;;;;13.88;81.64;100871.06;5038082;28;789;-76
2021/05/11 11:48:04;;;;;;;;;;;;;;;13.73;81.87;100871.91;5017661;28;1906;-76
2021/05/11 11:50:35;;;;;;;;;;;;;;;13.63;82.51;100884.38;5017988;28;912;-76
2021/05/11 11:53:11;;;;;;;;;;;;;;;13.61;81.56;100880.38;5018328;28;908;-76
2021/05/11 11:58:04;;;;;;;;;;;;;;;13.38;81.88;100889.41;5018971;28;1244;-76
2021/05/11 12:00:35;;;;;;;;;;;;;;;13.20;82.49;100894.50;5037246;28;782;-76
2021/05/11 12:03:01;;;;;;;;;;;;;;;13.26;82.65;100892.28;5038417;28;816;-76
2021/05/11 12:05:38;;;;;;;;;;;;;;;13.29;83.14;100883.22;5039657;28;908;-77
2021/05/11 12:10:45;;;;;;;;;;;;;;;13.38;82.04;100886.63;5038171;28;844;-76
2021/05/11 12:13:11;;;;;;;;;;;;;;;13.40;83.02;100878.75;5038494;28;923;-76
2021/05/11 12:15:37;;;;;;;;;;;;;;;13.41;82.27;100860.94;5037073;28;804;-76
2021/05/11 12:18:18;;;;;;;;;;;;;;;13.69;81.66;100851.63;5036659;28;1268;-76
2021/05/11 12:20:46;;;;;;;;;;;;;;;14.21;80.40;100833.59;5037229;28;824;-76
2021/05/11 12:23:16;;;;;;;;;;;;;;;14.62;79.14;100831.19;5037497;28;1451;-76
2021/05/11 12:25:44;;;;;;;;;;;;;;;14.94;78.50;100839.22;5037779;28;857;-76
2021/05/11 12:28:10;;;;;;;;;;;;;;;15.16;77.04;100834.00;5032686;28;2483;-76
2021/05/11 12:30:41;;;;;;;;;;;;;;;15.19;76.43;100844.34;5032339;28;1307;-76
2021/05/11 12:33:09;;;;;;;;;;;;;;;15.09;77.52;100840.25;5035727;28;872;-76
2021/05/11 12:35:35;;;;;;;;;;;;;;;15.34;76.49;100842.56;5035596;28;998;-76
2021/05/11 12:38:04;;;;;;;;;;;;;;;15.82;74.55;100839.25;5036150;28;1192;-76
2021/05/11 12:43:42;;;;;;;;;;;;;;;15.90;73.07;100841.72;5015753;28;856;-76
2021/05/11 12:46:29;;;;;;;;;;;;;;;16.05;73.00;100839.09;5015267;28;842;-77
2021/05/11 12:48:55;;;;;;;;;;;;;;;16.41;73.01;100826.31;5016942;28;1902;-76
2021/05/11 12:51:26;;;;;;;;;;;;;;;16.63;71.97;100826.50;5016803;28;869;-76
2021/05/11 12:53:54;;;;;;;;;;;;;;;16.50;70.77;100831.56;5017222;28;876;-76
2021/05/11 12:59:25;;;;;;;;;;;;;;;15.72;73.68;100863.75;5000651;28;1470;-76
2021/05/11 13:02:17;;;;;;;;;;;;;;;15.33;73.20;100866.00;5016738;28;825;-76
2021/05/11 13:15:26;;;;;;;;;;;;;;;13.85;77.33;100871.78;5017323;28;588;-76
2021/05/11 13:26:06;;;;;;;;;;;;;;;14.25;76.77;100861.44;5017039;28;620;-76
2021/05/11 13:28:45;;;;;;;;;;;;;;;14.21;76.79;100864.16;5009813;28;1960;-76
2021/05/11 13:34:00;;;;;;;;;;;;;;;14.38;75.99;100856.50;5016016;28;592;-76
2021/05/11 13:36:25;;;;;;;;;;;;;;;14.50;76.70;100853.56;5016021;28;900;-76
2021/05/11 13:38:51;;;;;;;;;;;;;;;14.25;77.02;100861.44;5015416;28;1292;-77
2021/05/11 13:41:16;;;;;;;;;;;;;;;14.21;78.27;100855.03;5015540;28;1023;-76
2021/05/11 13:43:41;;;;;;;;;;;;;;;14.21;77.20;100847.50;5016124;28;812;-76
2021/05/11 13:46:07;;;;;;;;;;;;;;;14.42;77.29;100857.38;5015849;28;869;-76
2021/05/11 13:48:37;;;;;;;;;;;;;;;14.66;77.30;100845.91;5015341;28;1878;-76
2021/05/11 13:51:24;;;;;;;;;;;;;;;14.97;77.12;100840.47;5015834;28;852;-77
2021/05/11 13:53:54;;;;;;;;;;;;;;;15.38;75.91;100848.97;5015538;28;1140;-76
2021/05/11 14:03:58;;;;;;;;;;;;;;;14.96;75.72;100863.88;5037175;28;1428;-76
2021/05/11 14:06:23;;;;;;;;;;;;;;;15.04;76.01;100857.25;5035547;28;4066;-76
2021/05/11 14:08:50;;;;;;;;;;;;;;;15.19;74.50;100858.25;5032439;28;1898;-76
2021/05/11 14:11:15;;;;;;;;;;;;;;;15.28;75.12;100853.22;5031624;28;1014;-76
2021/05/11 14:13:40;;;;;;;;;;;;;;;15.45;74.15;100854.66;5025856;28;1826;-77
2021/05/11 14:16:06;;;;;;;;;;;;;;;15.57;73.57;100867.50;5032642;28;814;-77
2021/05/11 14:18:35;;;;;;;;;;;;;;;15.56;74.01;100869.50;5019082;28;3965;-77
2021/05/11 14:21:00;;;;;;;;;;;;;;;15.45;73.72;100849.09;5030071;28;1298;-76
2021/05/11 14:23:26;;;;;;;;;;;;;;;15.38;73.68;100835.88;5015655;28;1127;-76
2021/05/11 14:25:51;;;;;;;;;;;;;;;15.36;73.51;100832.66;5016149;28;876;-77
2021/05/11 14:28:17;;;;;;;;;;;;;;;15.38;73.04;100829.50;5017287;28;1899;-76
2021/05/11 14:30:42;;;;;;;;;;;;;;;15.34;73.40;100834.22;5009537;28;968;-76
2021/05/11 14:33:07;;;;;;;;;;;;;;;14.95;72.56;100826.94;5034467;28;1047;-76
2021/05/11 14:35:33;;;;;;;;;;;;;;;14.75;73.65;100830.97;5039462;28;944;-76
2021/05/11 14:37:59;;;;;;;;;;;;;;;14.74;74.09;100832.97;5039239;28;1261;-76
2021/05/11 14:40:25;;;;;;;;;;;;;;;14.78;74.16;100838.56;5039194;28;1117;-76
2021/05/11 14:42:53;;;;;;;;;;;;;;;14.93;73.21;100820.13;5039552;28;1066;-76
2021/05/11 14:45:18;;;;;;;;;;;;;;;15.22;72.86;100816.56;5039695;28;1006;-76
2021/05/11 14:47:46;;;;;;;;;;;;;;;15.61;70.80;100816.28;5031957;28;1923;-76
2021/05/11 14:50:16;;;;;;;;;;;;;;;15.92;70.47;100828.22;5039024;28;1194;-76
2021/05/11 14:52:41;;;;;;;;;;;;;;;16.08;68.89;100836.34;5039360;28;1003;-76
2021/05/11 14:55:07;;;;;;;;;;;;;;;16.06;69.05;100833.16;5023732;28;3601;-76
2021/05/11 14:57:34;;;;;;;;;;;;;;;16.08;68.72;100844.69;5043184;28;1301;-77
2021/05/11 14:59:59;;;;;;;;;;;;;;;16.15;69.70;100838.41;5030288;28;1347;-76
2021/05/11 15:02:24;;;;;;;;;;;;;;;16.19;69.87;100841.22;5038432;28;850;-77
2021/05/11 15:04:50;;;;;;;;;;;;;;;16.45;68.59;100826.34;5038727;28;1296;-77
2021/05/11 15:07:15;;;;;;;;;;;;;;;16.69;68.20;100825.75;5038690;28;1886;-76
2021/05/11 15:09:41;;;;;;;;;;;;;;;16.90;66.96;100836.31;5038050;28;1162;-76
2021/05/11 15:12:07;;;;;;;;;;;;;;;16.89;67.75;100823.56;5034027;28;1014;-75
2021/05/11 15:14:32;;;;;;;;;;;;;;;16.78;68.85;100819.84;5035138;28;1082;-76
2021/05/11 15:16:59;;;;;;;;;;;;;;;16.66;69.28;100828.50;5037798;28;1306;-76
2021/05/11 15:19:24;;;;;;;;;;;;;;;16.54;69.69;100826.81;5037539;28;1340;-76
2021/05/11 15:21:50;;;;;;;;;;;;;;;16.07;70.11;100818.03;5036760;28;1180;-76
2021/05/11 15:24:15;;;;;;;;;;;;;;;15.84;71.52;100823.75;5038252;28;867;-76
2021/05/11 15:26:41;;;;;;;;;;;;;;;15.94;71.63;100820.28;5037765;28;1052;-76
2021/05/11 15:29:07;;;;;;;;;;;;;;;15.96;71.04;100825.47;5037608;28;1894;-76
2021/05/11 15:31:32;;;;;;;;;;;;;;;15.94;71.18;100825.84;5036856;28;1195;-76
2021/05/11 15:33:57;;;;;;;;;;;;;;;15.84;71.17;100814.59;5038648;28;1136;-76
2021/05/11 15:36:24;;;;;;;;;;;;;;;15.65;71.82;100827.47;5038084;28;1045;-76
2021/05/11 15:38:49;;;;;;;;;;;;;;;15.68;71.88;100832.28;5077904;23;1634;-76
2021/05/11 15:41:15;;;;;;;;;;;;;;;15.75;70.91;100837.97;4998321;28;870;-75
2021/05/11 15:43:40;;;;;;;;;;;;;;;15.85;70.15;100830.09;4997989;28;1403;-76
2021/05/11 15:46:06;;;;;;;;;;;;;;;15.80;70.03;100822.91;4998236;28;1165;-76
2021/05/11 15:48:31;;;;;;;;;;;;;;;15.63;71.29;100829.03;5003028;28;1956;-76
2021/05/11 15:50:57;;;;;;;;;;;;;;;15.68;70.68;100825.94;5017982;28;1173;-75
2021/05/11 15:53:23;;;;;;;;;;;;;;;15.54;70.72;100830.13;5015806;28;2814;-76
2021/05/11 15:55:48;;;;;;;;;;;;;;;15.37;71.80;100825.94;4998102;28;794;-75
2021/05/11 15:58:17;;;;;;;;;;;;;;;15.21;72.28;100819.75;5015492;28;1264;-75
2021/05/11 16:00:44;;;;;;;;;;;;;;;14.90;73.07;100824.47;5017536;28;1429;-76
2021/05/11 16:03:09;;;;;;;;;;;;;;;14.80;73.79;100819.53;5017760;28;1122;-76
2021/05/11 16:05:39;;;;;;;;;;;;;;;14.79;73.68;100815.16;5017949;28;1266;-76
2021/05/11 16:08:06;;;;;;;;;;;;;;;14.56;74.32;100815.16;5017430;28;1894;-76
2021/05/11 16:10:32;;;;;;;;;;;;;;;14.43;74.84;100815.34;5017537;28;1391;-76
2021/05/11 16:12:58;;;;;;;;;;;;;;;14.24;75.06;100815.38;5032994;28;1085;-76
2021/05/11 16:15:24;;;;;;;;;;;;;;;14.02;75.67;100811.44;5017582;28;853;-75
2021/05/11 16:17:49;;;;;;;;;;;;;;;13.98;75.90;100816.09;5016938;28;928;-75
2021/05/11 16:20:15;;;;;;;;;;;;;;;13.91;76.07;100828.69;5013148;28;1430;-75
2021/05/11 16:22:41;;;;;;;;;;;;;;;13.85;76.00;100827.38;5015482;28;1512;-75
2021/05/11 16:25:09;;;;;;;;;;;;;;;13.82;76.51;100833.66;5018014;28;1405;-75
2021/05/11 16:27:38;;;;;;;;;;;;;;;13.70;76.51;100829.06;5016973;28;1960;-78
2021/05/11 16:30:04;;;;;;;;;;;;;;;13.76;77.07;100823.22;5017235;28;1304;-76
2021/05/11 16:32:29;;;;;;;;;;;;;;;13.83;77.04;100817.81;5017871;28;865;-76
2021/05/11 16:34:54;;;;;;;;;;;;;;;13.83;77.18;100823.38;5017756;28;999;-77
2021/05/11 16:37:20;;;;;;;;;;;;;;;13.84;77.19;100817.44;5018007;28;1331;-76
2021/05/11 16:39:45;;;;;;;;;;;;;;;13.90;77.05;100823.50;5016934;28;1327;-76
2021/05/11 16:42:10;;;;;;;;;;;;;;;13.91;76.91;100812.03;5017255;28;1000;-78
2021/05/11 16:44:37;;;;;;;;;;;;;;;14.08;77.04;100816.31;5017490;28;1342;-78
2021/05/11 16:47:04;;;;;;;;;;;;;;;14.09;76.73;100820.69;5017446;28;1165;-79
2021/05/11 16:49:30;;;;;;;;;;;;;;;14.26;76.43;100819.41;5017265;28;1277;-78
2021/05/11 16:51:56;;;;;;;;;;;;;;;14.30;76.46;100823.03;5019166;28;917;-78
2021/05/11 16:54:21;;;;;;;;;;;;;;;14.33;76.51;100829.03;5019450;28;2300;-78
2021/05/11 16:56:46;;;;;;;;;;;;;;;14.25;77.13;100825.34;5017944;28;897;-78
2021/05/11 16:59:12;;;;;;;;;;;;;;;14.15;77.21;100826.72;5017413;28;1245;-78
2021/05/11 17:01:38;;;;;;;;;;;;;;;14.00;77.77;100833.19;5019140;28;896;-79
2021/05/11 17:04:04;;;;;;;;;;;;;;;13.94;77.94;100823.56;5017045;28;1319;-78
2021/05/11 17:06:33;;;;;;;;;;;;;;;13.96;78.15;100818.44;5017058;28;825;-78
2021/05/11 17:09:00;;;;;;;;;;;;;;;14.03;77.26;100824.13;5016765;28;1902;-78
2021/05/11 17:11:26;;;;;;;;;;;;;;;13.61;77.05;100756.34;5018281;28;806;-78